Cherry Point Marine Corps Ai, North Carolina
Current Conditions -  °F | °C
As of 8:54 PM on Wednesday 17 Dec 2014 (Local Time) from KNKT Reporting Station
Clear Clear  
Wind Chill: 46°   Ceiling: Unl
Heat Index: 46°   Visibility: 10mi
Dew Point: 42°   Wind: 3mph
Humidity: 86%   Direction: 230°SW
Pressure: 30.08"   Gusts: NA
Location:  34.8973°N, 76.9091°W
Report Text: KNKT 180154Z 23003KT 10SM CLR 08/06 A3008 RMK SLP183 T00780056
Loading
Personal Weather Stations






























Interactive Weather Map New forecast layout! Learn more

10-Day Weather Forecast

Advertisements
Track Severe Weather on mobile